sensor_id;sensor_type;location;lat;lon;timestamp;pressure;altitude;pressure_sealevel;temperature;humidity
64862;BME280;62652;42.274;-71.436;2023-02-14T00:00:00;99510.0;;;2.999999999999999;93.6
64862;BME280;62652;42.274;-71.436;2023-02-14T00:01:07;99510.0;;;2.999999999999999;93.5
64862;BME280;62652;42.274;-71.436;2023-02-14T00:02:00;99510.0;;;2.999999999999999;93.4
64862;BME280;62652;42.274;-71.436;2023-02-14T00:03:00;99510.0;;;2.999999999999999;93.6
64862;BME280;62652;42.274;-71.436;2023-02-14T00:04:01;99510.0;;;2.8888888888888906;94.1
64862;BME280;62652;42.274;-71.436;2023-02-14T00:05:01;99510.0;;;2.8888888888888906;94.6
64862;BME280;62652;42.274;-71.436;2023-02-14T00:06:05;99520.0;;;2.7777777777777777;95.5
64862;BME280;62652;42.274;-71.436;2023-02-14T00:07:00;99520.0;;;2.7777777777777777;95.5
64862;BME280;62652;42.274;-71.436;2023-02-14T00:08:00;99520.0;;;2.7777777777777777;95.9
64862;BME280;62652;42.274;-71.436;2023-02-14T00:09:01;99520.0;;;2.7222222222222214;96.4
64862;BME280;62652;42.274;-71.436;2023-02-14T00:10:00;99530.0;;;2.7222222222222214;96.9
64862;BME280;62652;42.274;-71.436;2023-02-14T00:11:00;99520.0;;;2.7222222222222214;96.9
64862;BME280;62652;42.274;-71.436;2023-02-14T00:12:01;99530.0;;;2.7222222222222214;97.0
64862;BME280;62652;42.274;-71.436;2023-02-14T00:13:00;99530.0;;;2.7222222222222214;97.0
64862;BME280;62652;42.274;-71.436;2023-02-14T00:14:01;99530.0;;;2.7222222222222214;97.3
64862;BME280;62652;42.274;-71.436;2023-02-14T00:15:01;99530.0;;;2.7222222222222214;97.6
64862;BME280;62652;42.274;-71.436;2023-02-14T00:16:00;99540.0;;;2.7777777777777777;97.1
64862;BME280;62652;42.274;-71.436;2023-02-14T00:17:01;99540.0;;;2.7777777777777777;97.0
64862;BME280;62652;42.274;-71.436;2023-02-14T00:18:01;99540.0;;;2.8888888888888906;96.5
64862;BME280;62652;42.274;-71.436;2023-02-14T00:19:00;99550.0;;;2.999999999999999;96.2
64862;BME280;62652;42.274;-71.436;2023-02-14T00:20:00;99550.0;;;2.999999999999999;95.9
64862;BME280;62652;42.274;-71.436;2023-02-14T00:21:00;99550.0;;;2.999999999999999;95.6
64862;BME280;62652;42.274;-71.436;2023-02-14T00:22:01;99550.0;;;2.999999999999999;94.6
64862;BME280;62652;42.274;-71.436;2023-02-14T00:23:00;99560.0;;;2.999999999999999;94.6
64862;BME280;62652;42.274;-71.436;2023-02-14T00:24:00;99560.0;;;2.999999999999999;94.5
64862;BME280;62652;42.274;-71.436;2023-02-14T00:25:01;99560.0;;;2.8888888888888906;95.0
64862;BME280;62652;42.274;-71.436;2023-02-14T00:26:01;99560.0;;;2.7777777777777777;95.4
64862;BME280;62652;42.274;-71.436;2023-02-14T00:27:00;99560.0;;;2.7222222222222214;96.7
64862;BME280;62652;42.274;-71.436;2023-02-14T00:28:00;99560.0;;;2.6111111111111125;97.5
64862;BME280;62652;42.274;-71.436;2023-02-14T00:29:00;99560.0;;;2.6111111111111125;98.0
64862;BME280;62652;42.274;-71.436;2023-02-14T00:30:01;99570.0;;;2.6111111111111125;98.0
64862;BME280;62652;42.274;-71.436;2023-02-14T00:31:01;99560.0;;;2.5;98.1
64862;BME280;62652;42.274;-71.436;2023-02-14T00:32:02;99560.0;;;2.5;98.3
64862;BME280;62652;42.274;-71.436;2023-02-14T00:33:01;99570.0;;;2.5;98.6
64862;BME280;62652;42.274;-71.436;2023-02-14T00:34:01;99570.0;;;2.5;98.7
64862;BME280;62652;42.274;-71.436;2023-02-14T00:35:00;99570.0;;;2.2777777777777786;99.2
64862;BME280;62652;42.274;-71.436;2023-02-14T00:36:02;99570.0;;;2.2777777777777786;99.8
64862;BME280;62652;42.274;-71.436;2023-02-14T00:37:01;99570.0;;;2.2777777777777786;100.0
64862;BME280;62652;42.274;-71.436;2023-02-14T00:38:00;99570.0;;;2.2222222222222223;100.0
64862;BME280;62652;42.274;-71.436;2023-02-14T00:39:01;99570.0;;;2.2222222222222223;100.0
64862;BME280;62652;42.274;-71.436;2023-02-14T00:40:01;99570.0;;;2.2222222222222223;100.0
64862;BME280;62652;42.274;-71.436;2023-02-14T00:41:01;99570.0;;;2.2222222222222223;100.0
64862;BME280;62652;42.274;-71.436;2023-02-14T00:42:00;99570.0;;;2.2777777777777786;100.0
64862;BME280;62652;42.274;-71.436;2023-02-14T00:43:00;99580.0;;;2.2777777777777786;100.0
64862;BME280;62652;42.274;-71.436;2023-02-14T00:44:01;99580.0;;;2.2777777777777786;100.0
64862;BME280;62652;42.274;-71.436;2023-02-14T00:45:01;99580.0;;;2.2777777777777786;100.0
64862;BME280;62652;42.274;-71.436;2023-02-14T00:46:01;99580.0;;;2.2777777777777786;100.0
64862;BME280;62652;42.274;-71.436;2023-02-14T00:47:01;99590.0;;;2.3888888888888875;100.0
64862;BME280;62652;42.274;-71.436;2023-02-14T00:48:01;99590.0;;;2.5;100.0
64862;BME280;62652;42.274;-71.436;2023-02-14T00:49:02;99590.0;;;2.5;100.0
64862;BME280;62652;42.274;-71.436;2023-02-14T00:50:00;99590.0;;;2.5;100.0
64862;BME280;62652;42.274;-71.436;2023-02-14T00:51:00;99590.0;;;2.5;100.0
64862;BME280;62652;42.274;-71.436;2023-02-14T00:52:00;99590.0;;;2.3888888888888875;100.0
64862;BME280;62652;42.274;-71.436;2023-02-14T00:53:01;99580.0;;;2.3888888888888875;100.0
64862;BME280;62652;42.274;-71.436;2023-02-14T00:54:01;99580.0;;;2.3888888888888875;100.0
64862;BME280;62652;42.274;-71.436;2023-02-14T00:55:01;99580.0;;;2.2777777777777786;100.0
64862;BME280;62652;42.274;-71.436;2023-02-14T00:56:01;99580.0;;;2.3888888888888875;100.0
64862;BME280;62652;42.274;-71.436;2023-02-14T00:57:01;99590.0;;;2.2777777777777786;100.0
64862;BME280;62652;42.274;-71.436;2023-02-14T00:58:00;99580.0;;;2.2777777777777786;100.0
64862;BME280;62652;42.274;-71.436;2023-02-14T00:59:01;99580.0;;;2.2777777777777786;100.0
64862;BME280;62652;42.274;-71.436;2023-02-14T01:00:01;99580.0;;;2.2777777777777786;100.0
64862;BME280;62652;42.274;-71.436;2023-02-14T01:01:01;99580.0;;;2.2777777777777786;100.0
64862;BME280;62652;42.274;-71.436;2023-02-14T01:02:01;99580.0;;;2.2777777777777786;100.0
64862;BME280;62652;42.274;-71.436;2023-02-14T01:03:01;99580.0;;;2.2222222222222223;100.0
64862;BME280;62652;42.274;-71.436;2023-02-14T01:04:01;99580.0;;;2.2222222222222223;100.0
64862;BME280;62652;42.274;-71.436;2023-02-14T01:05:01;99580.0;;;2.2222222222222223;100.0
64862;BME280;62652;42.274;-71.436;2023-02-14T01:06:00;99580.0;;;2.2222222222222223;100.0
64862;BME280;62652;42.274;-71.436;2023-02-14T01:07:01;99590.0;;;2.2222222222222223;100.0
64862;BME280;62652;42.274;-71.436;2023-02-14T01:08:01;99580.0;;;2.2222222222222223;100.0
64862;BME280;62652;42.274;-71.436;2023-02-14T01:09:01;99580.0;;;2.2777777777777786;100.0
64862;BME280;62652;42.274;-71.436;2023-02-14T01:10:01;99590.0;;;2.2777777777777786;100.0
64862;BME280;62652;42.274;-71.436;2023-02-14T01:11:06;99590.0;;;2.2777777777777786;100.0
64862;BME280;62652;42.274;-71.436;2023-02-14T01:12:00;99590.0;;;2.2777777777777786;100.0
64862;BME280;62652;42.274;-71.436;2023-02-14T01:13:00;99600.0;;;2.2777777777777786;100.0
64862;BME280;62652;42.274;-71.436;2023-02-14T01:14:01;99590.0;;;2.2777777777777786;100.0
64862;BME280;62652;42.274;-71.436;2023-02-14T01:15:01;99600.0;;;2.3888888888888875;100.0
64862;BME280;62652;42.274;-71.436;2023-02-14T01:16:05;99600.0;;;2.3888888888888875;100.0
64862;BME280;62652;42.274;-71.436;2023-02-14T01:17:00;99600.0;;;2.2777777777777786;100.0
64862;BME280;62652;42.274;-71.436;2023-02-14T01:18:00;99590.0;;;2.2777777777777786;100.0
64862;BME280;62652;42.274;-71.436;2023-02-14T01:19:01;99600.0;;;2.2222222222222223;100.0
64862;BME280;62652;42.274;-71.436;2023-02-14T01:20:01;99600.0;;;2.2777777777777786;100.0
64862;BME280;62652;42.274;-71.436;2023-02-14T01:21:11;99600.0;;;2.2777777777777786;100.0
64862;BME280;62652;42.274;-71.436;2023-02-14T01:22:00;99600.0;;;2.2777777777777786;100.0
64862;BME280;62652;42.274;-71.436;2023-02-14T01:23:01;99600.0;;;2.2777777777777786;100.0
64862;BME280;62652;42.274;-71.436;2023-02-14T01:24:03;99600.0;;;2.2222222222222223;100.0
64862;BME280;62652;42.274;-71.436;2023-02-14T01:25:00;99600.0;;;2.2222222222222223;100.0
64862;BME280;62652;42.274;-71.436;2023-02-14T01:26:04;99600.0;;;2.2222222222222223;100.0
64862;BME280;62652;42.274;-71.436;2023-02-14T01:27:01;99600.0;;;2.2222222222222223;100.0
64862;BME280;62652;42.274;-71.436;2023-02-14T01:28:01;99600.0;;;2.2222222222222223;100.0
64862;BME280;62652;42.274;-71.436;2023-02-14T01:29:02;99600.0;;;2.2222222222222223;100.0
64862;BME280;62652;42.274;-71.436;2023-02-14T01:30:00;99600.0;;;2.2222222222222223;100.0
64862;BME280;62652;42.274;-71.436;2023-02-14T01:31:06;99600.0;;;2.1111111111111094;100.0
64862;BME280;62652;42.274;-71.436;2023-02-14T01:32:01;99600.0;;;2.1111111111111094;100.0
64862;BME280;62652;42.274;-71.436;2023-02-14T01:33:01;99600.0;;;2.1111111111111094;100.0
64862;BME280;62652;42.274;-71.436;2023-02-14T01:34:01;99600.0;;;2.000000000000001;100.0
64862;BME280;62652;42.274;-71.436;2023-02-14T01:35:00;99600.0;;;2.000000000000001;100.0
64862;BME280;62652;42.274;-71.436;2023-02-14T01:36:00;99600.0;;;2.000000000000001;100.0
64862;BME280;62652;42.274;-71.436;2023-02-14T01:37:01;99610.0;;;2.000000000000001;100.0
64862;BME280;62652;42.274;-71.436;2023-02-14T01:38:00;99600.0;;;2.000000000000001;100.0
64862;BME280;62652;42.274;-71.436;2023-02-14T01:39:03;99600.0;;;2.000000000000001;100.0
64862;BME280;62652;42.274;-71.436;2023-02-14T01:40:01;99610.0;;;2.000000000000001;100.0
64862;BME280;62652;42.274;-71.436;2023-02-14T01:41:00;99600.0;;;2.000000000000001;100.0
64862;BME280;62652;42.274;-71.436;2023-02-14T01:42:01;99610.0;;;2.000000000000001;100.0
64862;BME280;62652;42.274;-71.436;2023-02-14T01:43:01;99600.0;;;1.7777777777777795;100.0
64862;BME280;62652;42.274;-71.436;2023-02-14T01:44:03;99610.0;;;1.8888888888888882;100.0
64862;BME280;62652;42.274;-71.436;2023-02-14T01:45:03;99600.0;;;2.000000000000001;100.0
64862;BME280;62652;42.274;-71.436;2023-02-14T01:46:01;99610.0;;;2.2222222222222223;100.0
64862;BME280;62652;42.274;-71.436;2023-02-14T01:47:04;99610.0;;;2.2777777777777786;100.0
64862;BME280;62652;42.274;-71.436;2023-02-14T01:48:01;99620.0;;;2.3888888888888875;100.0
64862;BME280;62652;42.274;-71.436;2023-02-14T01:49:03;99620.0;;;2.3888888888888875;100.0
64862;BME280;62652;42.274;-71.436;2023-02-14T01:50:04;99620.0;;;2.2777777777777786;100.0
64862;BME280;62652;42.274;-71.436;2023-02-14T01:51:01;99620.0;;;2.2222222222222223;100.0
64862;BME280;62652;42.274;-71.436;2023-02-14T01:52:04;99620.0;;;2.2222222222222223;100.0
64862;BME280;62652;42.274;-71.436;2023-02-14T01:53:04;99630.0;;;2.3888888888888875;100.0
64862;BME280;62652;42.274;-71.436;2023-02-14T01:54:03;99630.0;;;2.5;100.0
64862;BME280;62652;42.274;-71.436;2023-02-14T01:55:03;99630.0;;;2.6111111111111125;100.0
64862;BME280;62652;42.274;-71.436;2023-02-14T01:56:03;99640.0;;;2.6111111111111125;100.0
64862;BME280;62652;42.274;-71.436;2023-02-14T01:57:05;99640.0;;;2.5;100.0
64862;BME280;62652;42.274;-71.436;2023-02-14T01:58:05;99640.0;;;2.5;100.0
64862;BME280;62652;42.274;-71.436;2023-02-14T01:59:02;99640.0;;;2.5;100.0
64862;BME280;62652;42.274;-71.436;2023-02-14T02:00:02;99640.0;;;2.3888888888888875;100.0
64862;BME280;62652;42.274;-71.436;2023-02-14T02:01:01;99640.0;;;2.3888888888888875;100.0
64862;BME280;62652;42.274;-71.436;2023-02-14T02:02:01;99640.0;;;2.3888888888888875;100.0
64862;BME280;62652;42.274;-71.436;2023-02-14T02:03:02;99650.0;;;2.2777777777777786;100.0
64862;BME280;62652;42.274;-71.436;2023-02-14T02:04:05;99650.0;;;2.1111111111111094;100.0
64862;BME280;62652;42.274;-71.436;2023-02-14T02:05:01;99650.0;;;2.2222222222222223;100.0
64862;BME280;62652;42.274;-71.436;2023-02-14T02:06:07;99660.0;;;2.3888888888888875;100.0
64862;BME280;62652;42.274;-71.436;2023-02-14T02:07:04;99660.0;;;2.5;100.0
64862;BME280;62652;42.274;-71.436;2023-02-14T02:08:01;99660.0;;;2.5;100.0
64862;BME280;62652;42.274;-71.436;2023-02-14T02:09:07;99650.0;;;2.3888888888888875;100.0
64862;BME280;62652;42.274;-71.436;2023-02-14T02:10:03;99650.0;;;2.2777777777777786;100.0
64862;BME280;62652;42.274;-71.436;2023-02-14T02:11:00;99660.0;;;2.3888888888888875;100.0
64862;BME280;62652;42.274;-71.436;2023-02-14T02:12:01;99660.0;;;2.5;100.0
64862;BME280;62652;42.274;-71.436;2023-02-14T02:13:04;99650.0;;;2.5;100.0
64862;BME280;62652;42.274;-71.436;2023-02-14T02:14:02;99660.0;;;2.5;100.0
64862;BME280;62652;42.274;-71.436;2023-02-14T02:15:02;99650.0;;;2.5;100.0
64862;BME280;62652;42.274;-71.436;2023-02-14T02:16:15;99650.0;;;2.3888888888888875;100.0
64862;BME280;62652;42.274;-71.436;2023-02-14T02:17:13;99650.0;;;2.2777777777777786;100.0
64862;BME280;62652;42.274;-71.436;2023-02-14T02:18:06;99640.0;;;2.2777777777777786;100.0
64862;BME280;62652;42.274;-71.436;2023-02-14T02:19:12;99640.0;;;2.2222222222222223;100.0
64862;BME280;62652;42.274;-71.436;2023-02-14T02:20:19;99630.0;;;2.2222222222222223;100.0
64862;BME280;62652;42.274;-71.436;2023-02-14T02:21:16;99630.0;;;2.2777777777777786;100.0
64862;BME280;62652;42.274;-71.436;2023-02-14T02:22:13;99620.0;;;2.2777777777777786;100.0
64862;BME280;62652;42.274;-71.436;2023-02-14T02:24:21;99600.0;;;2.3888888888888875;100.0
64862;BME280;62652;42.274;-71.436;2023-02-14T02:25:10;99600.0;;;2.5;100.0
64862;BME280;62652;42.274;-71.436;2023-02-14T02:27:15;99580.0;;;2.5;100.0
64862;BME280;62652;42.274;-71.436;2023-02-14T02:29:16;99590.0;;;2.6111111111111125;100.0
64862;BME280;62652;42.274;-71.436;2023-02-14T02:31:16;99580.0;;;2.3888888888888875;100.0
64862;BME280;62652;42.274;-71.436;2023-02-14T02:33:17;99590.0;;;2.2777777777777786;100.0
64862;BME280;62652;42.274;-71.436;2023-02-14T02:34:14;99580.0;;;2.2222222222222223;100.0
64862;BME280;62652;42.274;-71.436;2023-02-14T02:35:09;99580.0;;;2.2222222222222223;100.0
64862;BME280;62652;42.274;-71.436;2023-02-14T02:36:08;99570.0;;;2.2222222222222223;100.0
64862;BME280;62652;42.274;-71.436;2023-02-14T02:37:12;99550.0;;;2.2222222222222223;100.0
64862;BME280;62652;42.274;-71.436;2023-02-14T02:38:11;99540.0;;;2.2222222222222223;100.0
64862;BME280;62652;42.274;-71.436;2023-02-14T02:39:12;99530.0;;;2.2777777777777786;100.0
64862;BME280;62652;42.274;-71.436;2023-02-14T02:40:09;99530.0;;;2.2777777777777786;100.0
64862;BME280;62652;42.274;-71.436;2023-02-14T02:41:04;99530.0;;;2.3888888888888875;100.0
64862;BME280;62652;42.274;-71.436;2023-02-14T02:42:05;99540.0;;;2.2777777777777786;100.0
64862;BME280;62652;42.274;-71.436;2023-02-14T02:43:13;99550.0;;;2.2222222222222223;100.0
64862;BME280;62652;42.274;-71.436;2023-02-14T02:44:12;99560.0;;;2.3888888888888875;100.0
64862;BME280;62652;42.274;-71.436;2023-02-14T02:45:09;99570.0;;;2.5;100.0
64862;BME280;62652;42.274;-71.436;2023-02-14T02:46:03;99580.0;;;2.5;100.0
64862;BME280;62652;42.274;-71.436;2023-02-14T02:47:04;99580.0;;;2.2777777777777786;100.0
64862;BME280;62652;42.274;-71.436;2023-02-14T02:48:05;99590.0;;;2.2777777777777786;100.0
64862;BME280;62652;42.274;-71.436;2023-02-14T02:49:08;99590.0;;;2.2222222222222223;100.0
64862;BME280;62652;42.274;-71.436;2023-02-14T02:50:06;99590.0;;;2.3888888888888875;100.0
64862;BME280;62652;42.274;-71.436;2023-02-14T02:51:02;99590.0;;;2.5;100.0
64862;BME280;62652;42.274;-71.436;2023-02-14T02:52:03;99590.0;;;2.5;100.0
64862;BME280;62652;42.274;-71.436;2023-02-14T02:53:06;99580.0;;;2.3888888888888875;100.0
64862;BME280;62652;42.274;-71.436;2023-02-14T02:54:07;99580.0;;;2.3888888888888875;100.0
64862;BME280;62652;42.274;-71.436;2023-02-14T02:55:05;99590.0;;;2.2777777777777786;100.0
64862;BME280;62652;42.274;-71.436;2023-02-14T02:56:04;99580.0;;;2.3888888888888875;100.0
64862;BME280;62652;42.274;-71.436;2023-02-14T02:57:04;99590.0;;;2.2777777777777786;100.0
64862;BME280;62652;42.274;-71.436;2023-02-14T02:58:02;99590.0;;;2.3888888888888875;100.0
64862;BME280;62652;42.274;-71.436;2023-02-14T02:59:04;99590.0;;;2.3888888888888875;100.0
64862;BME280;62652;42.274;-71.436;2023-02-14T03:00:03;99590.0;;;2.3888888888888875;100.0
64862;BME280;62652;42.274;-71.436;2023-02-14T03:01:05;99590.0;;;2.3888888888888875;100.0
64862;BME280;62652;42.274;-71.436;2023-02-14T03:02:06;99590.0;;;2.3888888888888875;100.0
64862;BME280;62652;42.274;-71.436;2023-02-14T03:03:00;99600.0;;;2.3888888888888875;100.0
64862;BME280;62652;42.274;-71.436;2023-02-14T03:04:05;99600.0;;;2.3888888888888875;100.0
64862;BME280;62652;42.274;-71.436;2023-02-14T03:05:04;99590.0;;;2.3888888888888875;100.0
64862;BME280;62652;42.274;-71.436;2023-02-14T03:06:01;99590.0;;;2.3888888888888875;100.0
64862;BME280;62652;42.274;-71.436;2023-02-14T03:07:01;99590.0;;;2.5;100.0
64862;BME280;62652;42.274;-71.436;2023-02-14T03:08:01;99590.0;;;2.5;100.0
64862;BME280;62652;42.274;-71.436;2023-02-14T03:09:08;99590.0;;;2.6111111111111125;100.0
64862;BME280;62652;42.274;-71.436;2023-02-14T03:10:06;99590.0;;;2.6111111111111125;100.0
64862;BME280;62652;42.274;-71.436;2023-02-14T03:11:02;99600.0;;;2.6111111111111125;100.0
64862;BME280;62652;42.274;-71.436;2023-02-14T03:12:14;99600.0;;;2.6111111111111125;100.0
64862;BME280;62652;42.274;-71.436;2023-02-14T03:13:15;99600.0;;;2.6111111111111125;100.0
64862;BME280;62652;42.274;-71.436;2023-02-14T03:14:13;99600.0;;;2.6111111111111125;100.0
64862;BME280;62652;42.274;-71.436;2023-02-14T03:15:07;99600.0;;;2.7222222222222214;100.0
64862;BME280;62652;42.274;-71.436;2023-02-14T03:16:14;99600.0;;;2.7222222222222214;100.0
64862;BME280;62652;42.274;-71.436;2023-02-14T03:17:05;99600.0;;;2.7777777777777777;100.0
64862;BME280;62652;42.274;-71.436;2023-02-14T03:18:06;99600.0;;;2.7222222222222214;100.0
64862;BME280;62652;42.274;-71.436;2023-02-14T03:19:18;99590.0;;;2.7777777777777777;100.0
64862;BME280;62652;42.274;-71.436;2023-02-14T03:20:07;99590.0;;;2.7777777777777777;100.0
64862;BME280;62652;42.274;-71.436;2023-02-14T03:21:07;99590.0;;;2.7777777777777777;100.0
64862;BME280;62652;42.274;-71.436;2023-02-14T03:22:09;99590.0;;;2.7777777777777777;100.0
64862;BME280;62652;42.274;-71.436;2023-02-14T03:23:04;99590.0;;;2.7777777777777777;100.0
64862;BME280;62652;42.274;-71.436;2023-02-14T03:24:14;99600.0;;;2.7777777777777777;100.0
64862;BME280;62652;42.274;-71.436;2023-02-14T03:25:05;99590.0;;;2.7777777777777777;100.0
64862;BME280;62652;42.274;-71.436;2023-02-14T03:26:06;99590.0;;;2.8888888888888906;100.0
64862;BME280;62652;42.274;-71.436;2023-02-14T03:27:05;99590.0;;;2.8888888888888906;100.0
64862;BME280;62652;42.274;-71.436;2023-02-14T03:28:09;99590.0;;;2.8888888888888906;100.0
64862;BME280;62652;42.274;-71.436;2023-02-14T03:29:10;99590.0;;;2.8888888888888906;100.0
64862;BME280;62652;42.274;-71.436;2023-02-14T03:30:08;99600.0;;;2.7777777777777777;100.0
64862;BME280;62652;42.274;-71.436;2023-02-14T03:31:11;99600.0;;;2.7222222222222214;100.0
64862;BME280;62652;42.274;-71.436;2023-02-14T03:32:06;99600.0;;;2.7222222222222214;100.0
64862;BME280;62652;42.274;-71.436;2023-02-14T03:33:04;99600.0;;;2.6111111111111125;100.0
64862;BME280;62652;42.274;-71.436;2023-02-14T03:34:07;99610.0;;;2.7222222222222214;100.0
64862;BME280;62652;42.274;-71.436;2023-02-14T03:35:10;99610.0;;;2.7222222222222214;100.0
64862;BME280;62652;42.274;-71.436;2023-02-14T03:36:07;99610.0;;;2.7222222222222214;100.0
64862;BME280;62652;42.274;-71.436;2023-02-14T03:37:05;99610.0;;;2.7222222222222214;100.0
64862;BME280;62652;42.274;-71.436;2023-02-14T03:38:06;99610.0;;;2.5;100.0
64862;BME280;62652;42.274;-71.436;2023-02-14T03:39:04;99610.0;;;2.5;100.0
64862;BME280;62652;42.274;-71.436;2023-02-14T03:40:06;99610.0;;;2.5;100.0
64862;BME280;62652;42.274;-71.436;2023-02-14T03:41:04;99620.0;;;2.5;100.0
64862;BME280;62652;42.274;-71.436;2023-02-14T03:42:06;99620.0;;;2.7222222222222214;100.0
64862;BME280;62652;42.274;-71.436;2023-02-14T03:43:06;99620.0;;;2.7222222222222214;100.0
64862;BME280;62652;42.274;-71.436;2023-02-14T03:44:04;99630.0;;;2.7777777777777777;100.0
64862;BME280;62652;42.274;-71.436;2023-02-14T03:45:03;99620.0;;;2.6111111111111125;100.0
64862;BME280;62652;42.274;-71.436;2023-02-14T03:46:05;99620.0;;;2.6111111111111125;100.0
64862;BME280;62652;42.274;-71.436;2023-02-14T03:47:05;99610.0;;;2.6111111111111125;100.0
64862;BME280;62652;42.274;-71.436;2023-02-14T03:48:04;99610.0;;;2.7222222222222214;100.0
64862;BME280;62652;42.274;-71.436;2023-02-14T03:49:07;99610.0;;;2.7222222222222214;100.0
64862;BME280;62652;42.274;-71.436;2023-02-14T03:50:03;99610.0;;;2.6111111111111125;100.0
64862;BME280;62652;42.274;-71.436;2023-02-14T03:51:02;99610.0;;;2.6111111111111125;100.0
64862;BME280;62652;42.274;-71.436;2023-02-14T03:52:02;99610.0;;;2.5;100.0
64862;BME280;62652;42.274;-71.436;2023-02-14T03:53:03;99600.0;;;2.5;100.0
64862;BME280;62652;42.274;-71.436;2023-02-14T03:54:03;99610.0;;;2.3888888888888875;100.0
64862;BME280;62652;42.274;-71.436;2023-02-14T03:55:04;99620.0;;;2.5;100.0
64862;BME280;62652;42.274;-71.436;2023-02-14T03:56:02;99630.0;;;2.7222222222222214;100.0
64862;BME280;62652;42.274;-71.436;2023-02-14T03:57:06;99630.0;;;2.7222222222222214;100.0
64862;BME280;62652;42.274;-71.436;2023-02-14T03:58:06;99630.0;;;2.7222222222222214;100.0
64862;BME280;62652;42.274;-71.436;2023-02-14T03:59:06;99630.0;;;2.7222222222222214;100.0
64862;BME280;62652;42.274;-71.436;2023-02-14T04:00:02;99630.0;;;2.6111111111111125;100.0
64862;BME280;62652;42.274;-71.436;2023-02-14T04:01:04;99630.0;;;2.6111111111111125;100.0
64862;BME280;62652;42.274;-71.436;2023-02-14T04:02:05;99630.0;;;2.5;100.0
64862;BME280;62652;42.274;-71.436;2023-02-14T04:03:05;99620.0;;;2.5;100.0
64862;BME280;62652;42.274;-71.436;2023-02-14T04:04:03;99620.0;;;2.6111111111111125;100.0
64862;BME280;62652;42.274;-71.436;2023-02-14T04:05:04;99620.0;;;2.6111111111111125;100.0
64862;BME280;62652;42.274;-71.436;2023-02-14T04:06:01;99620.0;;;2.6111111111111125;100.0
64862;BME280;62652;42.274;-71.436;2023-02-14T04:07:08;99630.0;;;2.5;100.0
64862;BME280;62652;42.274;-71.436;2023-02-14T04:08:00;99630.0;;;2.5;100.0
64862;BME280;62652;42.274;-71.436;2023-02-14T04:09:01;99630.0;;;2.5;100.0
64862;BME280;62652;42.274;-71.436;2023-02-14T04:10:00;99630.0;;;2.5;100.0
64862;BME280;62652;42.274;-71.436;2023-02-14T04:11:01;99630.0;;;2.5;100.0
64862;BME280;62652;42.274;-71.436;2023-02-14T04:12:00;99640.0;;;2.6111111111111125;100.0
64862;BME280;62652;42.274;-71.436;2023-02-14T04:13:01;99640.0;;;2.6111111111111125;100.0
64862;BME280;62652;42.274;-71.436;2023-02-14T04:14:01;99650.0;;;2.6111111111111125;100.0
64862;BME280;62652;42.274;-71.436;2023-02-14T04:15:01;99650.0;;;2.6111111111111125;100.0
64862;BME280;62652;42.274;-71.436;2023-02-14T04:16:01;99650.0;;;2.6111111111111125;100.0
64862;BME280;62652;42.274;-71.436;2023-02-14T04:17:01;99650.0;;;2.7222222222222214;100.0
64862;BME280;62652;42.274;-71.436;2023-02-14T04:18:00;99650.0;;;2.7222222222222214;100.0
64862;BME280;62652;42.274;-71.436;2023-02-14T04:19:01;99650.0;;;2.6111111111111125;100.0
64862;BME280;62652;42.274;-71.436;2023-02-14T04:20:00;99650.0;;;2.6111111111111125;100.0
64862;BME280;62652;42.274;-71.436;2023-02-14T04:21:01;99650.0;;;2.6111111111111125;100.0
64862;BME280;62652;42.274;-71.436;2023-02-14T04:22:01;99650.0;;;2.5;100.0
64862;BME280;62652;42.274;-71.436;2023-02-14T04:23:00;99650.0;;;2.5;100.0
64862;BME280;62652;42.274;-71.436;2023-02-14T04:24:01;99650.0;;;2.5;100.0
64862;BME280;62652;42.274;-71.436;2023-02-14T04:25:00;99650.0;;;2.5;100.0
64862;BME280;62652;42.274;-71.436;2023-02-14T04:26:01;99660.0;;;2.6111111111111125;100.0
64862;BME280;62652;42.274;-71.436;2023-02-14T04:27:01;99660.0;;;2.5;100.0
64862;BME280;62652;42.274;-71.436;2023-02-14T04:28:01;99660.0;;;2.5;100.0
64862;BME280;62652;42.274;-71.436;2023-02-14T04:29:01;99660.0;;;2.5;100.0
64862;BME280;62652;42.274;-71.436;2023-02-14T04:30:01;99660.0;;;2.6111111111111125;100.0
64862;BME280;62652;42.274;-71.436;2023-02-14T04:31:02;99660.0;;;2.6111111111111125;100.0
64862;BME280;62652;42.274;-71.436;2023-02-14T04:32:00;99670.0;;;2.5;100.0
64862;BME280;62652;42.274;-71.436;2023-02-14T04:33:02;99670.0;;;2.5;100.0
64862;BME280;62652;42.274;-71.436;2023-02-14T04:34:00;99670.0;;;2.5;100.0
64862;BME280;62652;42.274;-71.436;2023-02-14T04:35:00;99660.0;;;2.5;100.0
64862;BME280;62652;42.274;-71.436;2023-02-14T04:36:00;99670.0;;;2.5;100.0
64862;BME280;62652;42.274;-71.436;2023-02-14T04:37:01;99660.0;;;2.5;100.0
64862;BME280;62652;42.274;-71.436;2023-02-14T04:38:01;99660.0;;;2.5;100.0
64862;BME280;62652;42.274;-71.436;2023-02-14T04:39:01;99660.0;;;2.5;100.0
64862;BME280;62652;42.274;-71.436;2023-02-14T04:40:01;99660.0;;;2.3888888888888875;100.0
64862;BME280;62652;42.274;-71.436;2023-02-14T04:41:01;99660.0;;;2.3888888888888875;100.0
64862;BME280;62652;42.274;-71.436;2023-02-14T04:42:01;99670.0;;;2.5;100.0